• Join FlightAware (Why Join?)
  • Login
  • US Flag 
11:33PM EDT


 

Airport Tracker/Info


-or-


 

Live Flight TrackerFlight Track Log ✈ DAL3682 ✈ 20-Jun-2013 ✈ KDTW - KCAE

Flight Track Log - Related Links

Times and Time Zones

All times are in EDT time to prevent confusion due to time zone crossing. See the DAL3682 flight status page for this flight to view local times or setup timezone preferences in your user account.

Time Position Orientation Groundspeed Altitude Reporting Facility
EDT Latitude Longitude Course Direction KTS MPH feet Rate Location/Type
03:55PM 42.2036 -83.3556 218° Southwest 151 174 1,300  Level Cleveland Center
03:56PM 42.1386 -83.3778 194° South 217 250 4,300 2,220 Climbing Cleveland Center
03:57PM 42.0608 -83.3997 192° South 269 310 6,800 2,220 Climbing Cleveland Center
03:58PM 41.8801 -83.2528 180° South  Level Estimated
03:58PM 42.0003 -83.4081 186° South 299 344 8,600  Level Cleveland Center
03:59PM 41.7694 -83.2195 180° South  Level Estimated
03:59PM 41.8922 -83.3867 172° South 327 376 10,800  Level Cleveland Center
04:00PM 41.6586 -83.1863 180° South  Level Estimated
04:00PM 41.7969 -83.3683 172° South 327 376 12,000  Level Cleveland Center
04:01PM 41.5689 -83.2794 218° Southwest  Level FlightAware Approximate
04:01PM 41.6992 -83.3503 172° South 349 402 13,500  Level Cleveland Center
04:02PM 41.5953 -83.3375 175° South 361 415 14,900 1,380 Climbing Cleveland Center
04:03PM 41.4969 -83.3500 185° South 366 421 16,300 1,260 Climbing Cleveland Center
04:04PM 41.4019 -83.4069 204° Southwest 356 410 17,500 1,080 Climbing Cleveland Center
04:05PM 41.3086 -83.4636 205° Southwest 370 426 18,500 1,020 Climbing Cleveland Center
04:06PM 41.2136 -83.5175 203° Southwest 376 433 19,600 1,020 Climbing Cleveland Center
04:07PM 41.1161 -83.5736 203° Southwest 382 440 20,600 900 Climbing Cleveland Center
04:08PM 41.0336 -83.6222 204° Southwest 377 434 21,500 900 Climbing Cleveland Center
04:09PM 40.9319 -83.6781 203° Southwest 382 440 22,400 780 Climbing Cleveland Center
04:11PM 40.8192 -83.7419 203° Southwest 384 442 23,300 720 Climbing Indianapolis Center
04:12PM 40.7183 -83.8006 204° Southwest 390 449 24,100 780 Climbing Indianapolis Center
04:13PM 40.6164 -83.8578 203° Southwest 394 453 25,000 840 Climbing Indianapolis Center
04:14PM 40.4992 -83.9244 203° Southwest 391 450 25,900 780 Climbing Indianapolis Center
04:15PM 40.3981 -83.9817 203° Southwest 394 453 26,700 720 Climbing Indianapolis Center
04:16PM 40.2964 -84.0381 203° Southwest 393 452 27,500 600 Climbing Indianapolis Center
04:17PM 40.1878 -84.0606 189° South 396 456 28,000 240 Climbing Indianapolis Center
04:18PM 40.0747 -84.0789 187° South 406 467 28,000  Level Indianapolis Center
04:19PM 39.9569 -84.0986 187° South 419 482 28,000  Level Indianapolis Center
04:20PM 39.8161 -84.1225 187° South 433 498 28,000  Level Indianapolis Center
04:21PM 39.6944 -84.1425 187° South 437 503 28,000  Level Indianapolis Center
04:22PM 39.5717 -84.1631 187° South 442 509 28,000  Level Indianapolis Center
04:23PM 39.4472 -84.1839 187° South 447 514 28,000  Level Indianapolis Center
04:24PM 39.3222 -84.2050 187° South 449 517 28,000  Level Indianapolis Center
04:25PM 39.1958 -84.2239 187° South 452 520 28,000  Level Indianapolis Center
04:26PM 39.0506 -84.2481 187° South 451 519 28,000  Level Indianapolis Center
04:27PM 38.9250 -84.2706 188° South 452 520 28,000  Level Indianapolis Center
04:28PM 38.7992 -84.2881 186° South 449 517 28,000  Level Indianapolis Center
04:29PM 38.6739 -84.3069 187° South 451 519 28,000  Level Indianapolis Center
04:30PM 38.5561 -84.2153 149° Southeast 462 532 28,000  Level Indianapolis Center
04:31PM 38.4558 -84.1144 142° Southeast 460 529 28,000  Level Indianapolis Center
04:32PM 38.3556 -84.0108 141° Southeast 461 531 28,000  Level Indianapolis Center
04:33PM 38.2547 -83.9086 141° Southeast 462 532 28,000  Level Indianapolis Center
04:34PM 38.1367 -83.7897 142° Southeast 463 533 28,000  Level Indianapolis Center
04:35PM 38.0358 -83.6897 142° Southeast 460 529 28,000  Level Indianapolis Center
04:36PM 37.9347 -83.5878 141° Southeast 462 532 28,000  Level Indianapolis Center
04:38PM 37.8344 -83.4875 142° Southeast 458 527 28,000  Level Indianapolis Center
04:39PM 37.7344 -83.3886 142° Southeast 456 525 28,000  Level Indianapolis Center
04:40PM 37.6328 -83.2886 142° Southeast 460 529 28,000  Level Indianapolis Center
04:41PM 37.5136 -83.1717 142° Southeast 463 533 28,000  Level Indianapolis Center
04:42PM 37.4128 -83.0722 142° Southeast 460 529 28,000  Level Indianapolis Center
04:43PM 37.3108 -82.9725 142° Southeast 462 532 28,000  Level Indianapolis Center
04:44PM 37.2078 -82.8714 142° Southeast 465 535 28,000  Level Indianapolis Center
04:45PM 37.1047 -82.7708 142° Southeast 464 534 28,000  Level Indianapolis Center
04:46PM 37.0000 -82.6697 142° Southeast 466 536 28,000  Level Indianapolis Center
04:47PM 36.8961 -82.5694 142° Southeast 464 534 28,000  Level Indianapolis Center
04:48PM 36.7756 -82.4547 143° Southeast 463 533 28,000  Level Indianapolis Center
04:49PM 36.6742 -82.3569 142° Southeast 459 528 28,000  Level Indianapolis Center
04:49PM 36.6175 -82.3033 143° Southeast 463 533 28,000  Level Atlanta Center
04:50PM 36.5139 -82.2047 143° Southeast 463 533 28,000  Level Atlanta Center
04:51PM 36.4083 -82.1247 149° Southeast 463 533 28,000  Level Atlanta Center
04:52PM 36.2850 -82.1094 174° South 446 513 28,000  Level Atlanta Center
04:53PM 36.1639 -82.0944 174° South 435 501 28,000  Level Atlanta Center
04:54PM 36.0467 -82.0767 173° South 440 506 28,000 -240 Level Atlanta Center
04:55PM 35.9192 -82.0567 173° South 447 514 27,600 -720 Descending Atlanta Center
04:56PM 35.7958 -82.0417 174° South 441 507 26,600 -1,020 Descending Atlanta Center
04:57PM 35.6789 -82.0242 173° South 447 514 25,600 -840 Descending Atlanta Center
04:58PM 35.5575 -82.0094 174° South 442 509 25,000 -300 Descending Atlanta Center
04:59PM 35.4383 -81.9919 173° South 442 509 25,000  Level Atlanta Center
05:00PM 35.3169 -81.9719 172° South 442 509 25,000  Level Atlanta Center
05:01PM 35.2000 -81.9569 174° South 442 509 25,000  Level Atlanta Center
05:02PM 35.0764 -81.9400 174° South 442 509 25,000  Level Atlanta Center
05:03PM 34.9647 -81.8794 156° South 437 503 25,000  Level Atlanta Center
05:04PM 34.8697 -81.8133 150° Southeast 437 503 25,000 -420 Level Atlanta Center
05:05PM 34.7661 -81.7353 148° Southeast 437 503 24,200 -1,860 Descending Atlanta Center
05:08PM 34.5239 -81.5494 148° Southeast 396 456 18,600 -2,580 Descending Jacksonville Center
05:09PM 34.4314 -81.4828 149° Southeast 396 456 15,400 -3,300 Descending Jacksonville Center
05:10PM 34.3350 -81.4317 156° South 386 444 12,100 -2,520 Descending Jacksonville Center
05:11PM 34.2469 -81.3878 158° South 361 415 10,400 -1,800 Descending Jacksonville Center
05:12PM 34.1733 -81.3539 159° South 320 368 8,500 -2,340 Descending Jacksonville Center
05:13PM 34.1061 -81.3200 157° South 284 327 5,800 -2,700 Descending Jacksonville Center
05:14PM 34.0411 -81.2861 157° South 271 312 3,100 -2,700 Descending Jacksonville Center